sensor_id;sensor_type;location;lat;lon;timestamp;P1;durP1;ratioP1;P2;durP2;ratioP2
13366;SDS011;6752;52.612;13.630;2023-11-19T00:01:17;10.23;;;8.37;;
13366;SDS011;6752;52.612;13.630;2023-11-19T00:06:19;9.73;;;7.67;;
13366;SDS011;6752;52.612;13.630;2023-11-19T00:11:22;10.30;;;8.70;;
13366;SDS011;6752;52.612;13.630;2023-11-19T00:16:24;9.23;;;7.87;;
13366;SDS011;6752;52.612;13.630;2023-11-19T00:21:26;9.77;;;7.90;;
13366;SDS011;6752;52.612;13.630;2023-11-19T00:26:29;9.53;;;8.10;;
13366;SDS011;6752;52.612;13.630;2023-11-19T00:31:31;9.20;;;7.47;;
13366;SDS011;6752;52.612;13.630;2023-11-19T00:36:33;9.20;;;7.53;;
13366;SDS011;6752;52.612;13.630;2023-11-19T00:41:36;9.03;;;7.90;;
13366;SDS011;6752;52.612;13.630;2023-11-19T00:46:38;8.93;;;7.97;;
13366;SDS011;6752;52.612;13.630;2023-11-19T00:51:40;8.90;;;7.50;;
13366;SDS011;6752;52.612;13.630;2023-11-19T00:56:43;9.90;;;7.57;;
13366;SDS011;6752;52.612;13.630;2023-11-19T01:01:45;8.77;;;7.37;;
13366;SDS011;6752;52.612;13.630;2023-11-19T01:06:47;10.00;;;8.17;;
13366;SDS011;6752;52.612;13.630;2023-11-19T01:11:50;8.73;;;7.53;;
13366;SDS011;6752;52.612;13.630;2023-11-19T01:16:55;9.47;;;7.77;;
13366;SDS011;6752;52.612;13.630;2023-11-19T01:21:57;8.40;;;7.50;;
13366;SDS011;6752;52.612;13.630;2023-11-19T01:27:00;9.07;;;7.03;;
13366;SDS011;6752;52.612;13.630;2023-11-19T01:32:02;9.00;;;7.50;;
13366;SDS011;6752;52.612;13.630;2023-11-19T01:37:04;9.20;;;7.20;;
13366;SDS011;6752;52.612;13.630;2023-11-19T01:42:07;8.77;;;7.17;;
13366;SDS011;6752;52.612;13.630;2023-11-19T01:47:09;9.03;;;6.67;;
13366;SDS011;6752;52.612;13.630;2023-11-19T01:52:11;9.23;;;6.67;;
13366;SDS011;6752;52.612;13.630;2023-11-19T01:57:14;8.47;;;7.33;;
13366;SDS011;6752;52.612;13.630;2023-11-19T02:02:16;8.13;;;6.97;;
13366;SDS011;6752;52.612;13.630;2023-11-19T02:07:18;8.07;;;6.70;;
13366;SDS011;6752;52.612;13.630;2023-11-19T02:12:21;8.80;;;6.90;;
13366;SDS011;6752;52.612;13.630;2023-11-19T02:17:26;8.70;;;7.00;;
13366;SDS011;6752;52.612;13.630;2023-11-19T02:22:28;9.37;;;6.80;;
13366;SDS011;6752;52.612;13.630;2023-11-19T02:27:45;7.30;;;6.10;;
13366;SDS011;6752;52.612;13.630;2023-11-19T02:32:52;7.60;;;6.77;;
13366;SDS011;6752;52.612;13.630;2023-11-19T02:37:56;8.20;;;7.10;;
13366;SDS011;6752;52.612;13.630;2023-11-19T02:42:59;8.83;;;6.97;;
13366;SDS011;6752;52.612;13.630;2023-11-19T02:48:01;8.30;;;6.90;;
13366;SDS011;6752;52.612;13.630;2023-11-19T02:53:03;9.37;;;7.17;;
13366;SDS011;6752;52.612;13.630;2023-11-19T02:58:06;7.83;;;6.57;;
13366;SDS011;6752;52.612;13.630;2023-11-19T03:03:11;10.60;;;7.07;;
13366;SDS011;6752;52.612;13.630;2023-11-19T03:08:14;7.47;;;6.67;;
13366;SDS011;6752;52.612;13.630;2023-11-19T03:13:16;8.23;;;7.00;;
13366;SDS011;6752;52.612;13.630;2023-11-19T03:18:21;8.13;;;6.40;;
13366;SDS011;6752;52.612;13.630;2023-11-19T03:23:23;8.60;;;6.30;;
13366;SDS011;6752;52.612;13.630;2023-11-19T03:28:26;7.20;;;6.17;;
13366;SDS011;6752;52.612;13.630;2023-11-19T03:33:28;8.30;;;6.27;;
13366;SDS011;6752;52.612;13.630;2023-11-19T03:38:30;7.37;;;5.50;;
13366;SDS011;6752;52.612;13.630;2023-11-19T03:43:33;7.30;;;5.83;;
13366;SDS011;6752;52.612;13.630;2023-11-19T03:48:35;7.43;;;5.97;;
13366;SDS011;6752;52.612;13.630;2023-11-19T03:53:37;8.83;;;6.90;;
13366;SDS011;6752;52.612;13.630;2023-11-19T03:58:40;7.47;;;6.10;;
13366;SDS011;6752;52.612;13.630;2023-11-19T04:03:42;7.47;;;6.53;;
13366;SDS011;6752;52.612;13.630;2023-11-19T04:08:44;9.17;;;7.27;;
13366;SDS011;6752;52.612;13.630;2023-11-19T04:13:47;11.60;;;8.00;;
13366;SDS011;6752;52.612;13.630;2023-11-19T04:18:49;9.53;;;8.03;;
13366;SDS011;6752;52.612;13.630;2023-11-19T04:23:51;10.67;;;8.00;;
13366;SDS011;6752;52.612;13.630;2023-11-19T04:28:54;9.33;;;7.83;;
13366;SDS011;6752;52.612;13.630;2023-11-19T04:33:56;11.40;;;8.13;;
13366;SDS011;6752;52.612;13.630;2023-11-19T04:38:59;9.20;;;7.60;;
13366;SDS011;6752;52.612;13.630;2023-11-19T04:44:01;9.43;;;8.52;;
13366;SDS011;6752;52.612;13.630;2023-11-19T04:49:03;7.97;;;7.03;;
13366;SDS011;6752;52.612;13.630;2023-11-19T04:54:06;9.57;;;7.80;;
13366;SDS011;6752;52.612;13.630;2023-11-19T04:59:08;8.45;;;7.65;;
13366;SDS011;6752;52.612;13.630;2023-11-19T05:04:10;9.33;;;8.40;;
13366;SDS011;6752;52.612;13.630;2023-11-19T05:09:13;9.00;;;7.50;;
13366;SDS011;6752;52.612;13.630;2023-11-19T05:14:15;10.60;;;7.80;;
13366;SDS011;6752;52.612;13.630;2023-11-19T05:19:17;10.73;;;8.83;;
13366;SDS011;6752;52.612;13.630;2023-11-19T05:24:20;9.80;;;8.17;;
13366;SDS011;6752;52.612;13.630;2023-11-19T05:29:22;10.73;;;8.80;;
13366;SDS011;6752;52.612;13.630;2023-11-19T05:34:25;9.20;;;8.23;;
13366;SDS011;6752;52.612;13.630;2023-11-19T05:39:27;9.90;;;8.23;;
13366;SDS011;6752;52.612;13.630;2023-11-19T05:44:29;11.83;;;9.37;;
13366;SDS011;6752;52.612;13.630;2023-11-19T05:49:32;11.47;;;9.73;;
13366;SDS011;6752;52.612;13.630;2023-11-19T05:54:34;10.93;;;8.97;;
13366;SDS011;6752;52.612;13.630;2023-11-19T05:59:36;13.30;;;10.20;;
13366;SDS011;6752;52.612;13.630;2023-11-19T06:04:39;9.00;;;8.10;;
13366;SDS011;6752;52.612;13.630;2023-11-19T06:09:41;7.10;;;6.40;;
13366;SDS011;6752;52.612;13.630;2023-11-19T06:14:43;7.37;;;6.63;;
13366;SDS011;6752;52.612;13.630;2023-11-19T06:19:46;6.73;;;5.77;;
13366;SDS011;6752;52.612;13.630;2023-11-19T06:24:48;7.73;;;6.93;;
13366;SDS011;6752;52.612;13.630;2023-11-19T06:29:50;9.70;;;7.90;;
13366;SDS011;6752;52.612;13.630;2023-11-19T06:34:53;8.77;;;7.33;;
13366;SDS011;6752;52.612;13.630;2023-11-19T06:39:55;7.63;;;6.83;;
13366;SDS011;6752;52.612;13.630;2023-11-19T06:44:57;6.60;;;5.80;;
13366;SDS011;6752;52.612;13.630;2023-11-19T06:50:00;8.43;;;6.93;;
13366;SDS011;6752;52.612;13.630;2023-11-19T06:55:02;7.57;;;6.87;;
13366;SDS011;6752;52.612;13.630;2023-11-19T07:00:05;7.17;;;6.20;;
13366;SDS011;6752;52.612;13.630;2023-11-19T07:05:07;6.07;;;5.17;;
13366;SDS011;6752;52.612;13.630;2023-11-19T07:10:09;6.67;;;5.73;;
13366;SDS011;6752;52.612;13.630;2023-11-19T07:15:12;6.57;;;5.97;;
13366;SDS011;6752;52.612;13.630;2023-11-19T07:20:14;4.33;;;3.87;;
13366;SDS011;6752;52.612;13.630;2023-11-19T07:25:16;6.17;;;4.93;;
13366;SDS011;6752;52.612;13.630;2023-11-19T07:30:19;6.75;;;5.82;;
13366;SDS011;6752;52.612;13.630;2023-11-19T07:35:21;5.60;;;4.93;;
13366;SDS011;6752;52.612;13.630;2023-11-19T07:40:24;6.30;;;5.47;;
13366;SDS011;6752;52.612;13.630;2023-11-19T07:45:26;5.20;;;4.70;;
13366;SDS011;6752;52.612;13.630;2023-11-19T07:50:28;6.50;;;5.23;;
13366;SDS011;6752;52.612;13.630;2023-11-19T07:55:30;5.20;;;4.23;;
13366;SDS011;6752;52.612;13.630;2023-11-19T08:00:33;6.77;;;6.07;;
13366;SDS011;6752;52.612;13.630;2023-11-19T08:05:35;6.13;;;5.53;;
13366;SDS011;6752;52.612;13.630;2023-11-19T08:10:38;6.10;;;5.50;;
13366;SDS011;6752;52.612;13.630;2023-11-19T08:15:40;6.80;;;5.87;;
13366;SDS011;6752;52.612;13.630;2023-11-19T08:20:42;11.97;;;10.77;;
13366;SDS011;6752;52.612;13.630;2023-11-19T08:25:45;7.30;;;6.57;;
13366;SDS011;6752;52.612;13.630;2023-11-19T08:30:47;7.77;;;6.03;;
13366;SDS011;6752;52.612;13.630;2023-11-19T08:35:49;7.80;;;7.00;;
13366;SDS011;6752;52.612;13.630;2023-11-19T08:40:52;8.10;;;7.17;;
13366;SDS011;6752;52.612;13.630;2023-11-19T08:45:54;9.43;;;7.07;;
13366;SDS011;6752;52.612;13.630;2023-11-19T08:50:56;8.93;;;8.00;;
13366;SDS011;6752;52.612;13.630;2023-11-19T08:55:59;7.63;;;6.73;;
13366;SDS011;6752;52.612;13.630;2023-11-19T09:01:01;9.70;;;8.70;;
13366;SDS011;6752;52.612;13.630;2023-11-19T09:06:03;9.40;;;8.40;;
13366;SDS011;6752;52.612;13.630;2023-11-19T09:11:09;10.80;;;8.93;;
13366;SDS011;6752;52.612;13.630;2023-11-19T09:16:12;12.70;;;10.80;;
13366;SDS011;6752;52.612;13.630;2023-11-19T09:21:13;11.90;;;10.63;;
13366;SDS011;6752;52.612;13.630;2023-11-19T09:26:16;8.87;;;7.43;;
13366;SDS011;6752;52.612;13.630;2023-11-19T09:31:18;8.30;;;7.60;;
13366;SDS011;6752;52.612;13.630;2023-11-19T09:36:20;9.60;;;8.67;;
13366;SDS011;6752;52.612;13.630;2023-11-19T09:41:23;9.87;;;8.63;;
13366;SDS011;6752;52.612;13.630;2023-11-19T09:46:25;10.60;;;9.60;;
13366;SDS011;6752;52.612;13.630;2023-11-19T09:51:27;8.77;;;7.97;;
13366;SDS011;6752;52.612;13.630;2023-11-19T09:56:30;9.83;;;8.90;;
13366;SDS011;6752;52.612;13.630;2023-11-19T10:01:32;8.57;;;7.77;;
13366;SDS011;6752;52.612;13.630;2023-11-19T10:06:35;9.97;;;9.07;;
13366;SDS011;6752;52.612;13.630;2023-11-19T10:11:37;8.60;;;7.70;;
13366;SDS011;6752;52.612;13.630;2023-11-19T10:16:39;10.70;;;9.40;;
13366;SDS011;6752;52.612;13.630;2023-11-19T10:21:42;7.07;;;6.33;;
13366;SDS011;6752;52.612;13.630;2023-11-19T10:26:44;6.75;;;6.00;;
13366;SDS011;6752;52.612;13.630;2023-11-19T10:31:55;6.33;;;4.80;;
13366;SDS011;6752;52.612;13.630;2023-11-19T10:36:49;6.40;;;4.70;;
13366;SDS011;6752;52.612;13.630;2023-11-19T10:41:54;5.47;;;4.40;;
13366;SDS011;6752;52.612;13.630;2023-11-19T10:46:56;6.73;;;4.47;;
13366;SDS011;6752;52.612;13.630;2023-11-19T10:51:58;6.50;;;4.03;;
13366;SDS011;6752;52.612;13.630;2023-11-19T10:57:01;5.47;;;3.80;;
13366;SDS011;6752;52.612;13.630;2023-11-19T11:02:07;5.60;;;3.80;;
13366;SDS011;6752;52.612;13.630;2023-11-19T11:07:21;5.63;;;3.17;;
13366;SDS011;6752;52.612;13.630;2023-11-19T11:12:23;5.50;;;3.27;;
13366;SDS011;6752;52.612;13.630;2023-11-19T11:17:25;9.73;;;3.73;;
13366;SDS011;6752;52.612;13.630;2023-11-19T11:22:33;7.63;;;3.70;;
13366;SDS011;6752;52.612;13.630;2023-11-19T11:28:21;5.97;;;2.90;;
13366;SDS011;6752;52.612;13.630;2023-11-19T11:32:47;9.17;;;3.50;;
13366;SDS011;6752;52.612;13.630;2023-11-19T11:37:50;8.60;;;3.70;;
13366;SDS011;6752;52.612;13.630;2023-11-19T11:42:52;8.53;;;3.57;;
13366;SDS011;6752;52.612;13.630;2023-11-19T11:57:59;8.30;;;3.30;;
13366;SDS011;6752;52.612;13.630;2023-11-19T12:03:02;10.23;;;3.37;;
13366;SDS011;6752;52.612;13.630;2023-11-19T12:08:04;11.60;;;4.07;;
13366;SDS011;6752;52.612;13.630;2023-11-19T12:13:06;10.93;;;4.20;;
13366;SDS011;6752;52.612;13.630;2023-11-19T12:18:08;11.30;;;3.87;;
13366;SDS011;6752;52.612;13.630;2023-11-19T12:23:11;13.40;;;3.90;;
13366;SDS011;6752;52.612;13.630;2023-11-19T12:28:17;10.43;;;3.63;;
13366;SDS011;6752;52.612;13.630;2023-11-19T12:33:15;15.60;;;4.87;;
13366;SDS011;6752;52.612;13.630;2023-11-19T12:38:18;13.40;;;5.50;;
13366;SDS011;6752;52.612;13.630;2023-11-19T12:43:23;14.50;;;4.47;;
13366;SDS011;6752;52.612;13.630;2023-11-19T12:48:31;18.67;;;5.33;;
13366;SDS011;6752;52.612;13.630;2023-11-19T12:53:46;15.57;;;5.03;;
13366;SDS011;6752;52.612;13.630;2023-11-19T12:58:36;12.47;;;4.47;;
13366;SDS011;6752;52.612;13.630;2023-11-19T13:03:38;29.10;;;14.53;;
13366;SDS011;6752;52.612;13.630;2023-11-19T13:08:41;17.27;;;6.80;;
13366;SDS011;6752;52.612;13.630;2023-11-19T13:13:59;14.40;;;4.70;;
13366;SDS011;6752;52.612;13.630;2023-11-19T13:18:57;14.13;;;4.53;;
13366;SDS011;6752;52.612;13.630;2023-11-19T13:23:59;13.53;;;5.00;;
13366;SDS011;6752;52.612;13.630;2023-11-19T13:29:02;17.47;;;4.83;;
13366;SDS011;6752;52.612;13.630;2023-11-19T13:34:04;13.10;;;4.53;;
13366;SDS011;6752;52.612;13.630;2023-11-19T13:39:07;12.13;;;4.07;;
13366;SDS011;6752;52.612;13.630;2023-11-19T13:44:09;15.37;;;4.60;;
13366;SDS011;6752;52.612;13.630;2023-11-19T13:49:11;13.57;;;4.20;;
13366;SDS011;6752;52.612;13.630;2023-11-19T13:54:14;10.93;;;4.33;;
13366;SDS011;6752;52.612;13.630;2023-11-19T13:59:16;13.20;;;3.87;;
13366;SDS011;6752;52.612;13.630;2023-11-19T14:04:18;12.97;;;3.90;;
13366;SDS011;6752;52.612;13.630;2023-11-19T14:09:21;15.27;;;4.50;;
13366;SDS011;6752;52.612;13.630;2023-11-19T14:14:23;14.97;;;4.43;;
13366;SDS011;6752;52.612;13.630;2023-11-19T14:19:25;13.03;;;5.30;;
13366;SDS011;6752;52.612;13.630;2023-11-19T14:24:28;13.93;;;4.47;;
13366;SDS011;6752;52.612;13.630;2023-11-19T14:29:30;16.53;;;4.40;;
13366;SDS011;6752;52.612;13.630;2023-11-19T14:34:33;11.53;;;4.20;;
13366;SDS011;6752;52.612;13.630;2023-11-19T14:39:35;14.90;;;4.57;;
13366;SDS011;6752;52.612;13.630;2023-11-19T14:44:37;15.33;;;5.00;;
13366;SDS011;6752;52.612;13.630;2023-11-19T14:49:40;17.80;;;5.20;;
13366;SDS011;6752;52.612;13.630;2023-11-19T14:54:42;17.07;;;5.73;;
13366;SDS011;6752;52.612;13.630;2023-11-19T14:59:44;15.27;;;5.97;;
13366;SDS011;6752;52.612;13.630;2023-11-19T15:04:47;16.53;;;5.93;;
13366;SDS011;6752;52.612;13.630;2023-11-19T15:09:49;17.87;;;4.97;;
13366;SDS011;6752;52.612;13.630;2023-11-19T15:14:51;15.87;;;5.10;;
13366;SDS011;6752;52.612;13.630;2023-11-19T15:19:54;22.67;;;9.13;;
13366;SDS011;6752;52.612;13.630;2023-11-19T15:24:56;14.87;;;5.07;;
13366;SDS011;6752;52.612;13.630;2023-11-19T15:29:59;14.87;;;5.40;;
13366;SDS011;6752;52.612;13.630;2023-11-19T15:35:01;16.87;;;5.40;;
13366;SDS011;6752;52.612;13.630;2023-11-19T15:40:03;13.93;;;4.70;;
13366;SDS011;6752;52.612;13.630;2023-11-19T15:45:06;20.17;;;7.33;;
13366;SDS011;6752;52.612;13.630;2023-11-19T15:50:08;14.73;;;6.90;;
13366;SDS011;6752;52.612;13.630;2023-11-19T15:55:11;17.13;;;4.93;;
13366;SDS011;6752;52.612;13.630;2023-11-19T16:00:13;20.57;;;8.30;;
13366;SDS011;6752;52.612;13.630;2023-11-19T16:05:15;15.00;;;5.40;;
13366;SDS011;6752;52.612;13.630;2023-11-19T16:10:18;16.50;;;5.23;;
13366;SDS011;6752;52.612;13.630;2023-11-19T16:15:20;23.43;;;10.77;;
13366;SDS011;6752;52.612;13.630;2023-11-19T16:20:22;18.63;;;7.03;;
13366;SDS011;6752;52.612;13.630;2023-11-19T16:25:25;18.20;;;9.40;;
13366;SDS011;6752;52.612;13.630;2023-11-19T16:30:27;24.30;;;12.20;;
13366;SDS011;6752;52.612;13.630;2023-11-19T16:35:29;21.00;;;7.80;;
13366;SDS011;6752;52.612;13.630;2023-11-19T16:40:32;14.87;;;6.90;;
13366;SDS011;6752;52.612;13.630;2023-11-19T16:45:34;23.77;;;10.80;;
13366;SDS011;6752;52.612;13.630;2023-11-19T16:50:37;19.77;;;8.53;;
13366;SDS011;6752;52.612;13.630;2023-11-19T16:55:39;19.30;;;7.40;;
13366;SDS011;6752;52.612;13.630;2023-11-19T17:00:41;20.10;;;10.07;;
13366;SDS011;6752;52.612;13.630;2023-11-19T17:05:44;16.13;;;7.83;;
13366;SDS011;6752;52.612;13.630;2023-11-19T17:10:46;17.60;;;7.80;;
13366;SDS011;6752;52.612;13.630;2023-11-19T17:15:48;16.17;;;7.90;;
13366;SDS011;6752;52.612;13.630;2023-11-19T17:20:52;17.17;;;7.50;;
13366;SDS011;6752;52.612;13.630;2023-11-19T17:25:57;13.52;;;5.60;;
13366;SDS011;6752;52.612;13.630;2023-11-19T17:30:59;14.53;;;4.80;;
13366;SDS011;6752;52.612;13.630;2023-11-19T17:36:02;17.60;;;5.77;;
13366;SDS011;6752;52.612;13.630;2023-11-19T17:41:04;14.53;;;5.57;;
13366;SDS011;6752;52.612;13.630;2023-11-19T17:46:06;15.43;;;5.87;;
13366;SDS011;6752;52.612;13.630;2023-11-19T17:51:09;15.20;;;5.37;;
13366;SDS011;6752;52.612;13.630;2023-11-19T17:56:11;16.57;;;6.13;;
13366;SDS011;6752;52.612;13.630;2023-11-19T18:01:15;16.87;;;5.43;;
13366;SDS011;6752;52.612;13.630;2023-11-19T18:06:16;18.27;;;6.00;;
13366;SDS011;6752;52.612;13.630;2023-11-19T18:11:21;15.13;;;5.30;;
13366;SDS011;6752;52.612;13.630;2023-11-19T18:16:24;16.43;;;5.80;;
13366;SDS011;6752;52.612;13.630;2023-11-19T18:21:26;14.73;;;5.23;;
13366;SDS011;6752;52.612;13.630;2023-11-19T18:26:28;15.53;;;4.97;;
13366;SDS011;6752;52.612;13.630;2023-11-19T18:31:31;12.67;;;4.00;;
13366;SDS011;6752;52.612;13.630;2023-11-19T18:36:34;12.00;;;4.53;;
13366;SDS011;6752;52.612;13.630;2023-11-19T18:41:38;9.53;;;3.87;;
13366;SDS011;6752;52.612;13.630;2023-11-19T18:46:41;12.10;;;4.18;;
13366;SDS011;6752;52.612;13.630;2023-11-19T18:51:43;10.10;;;3.73;;
13366;SDS011;6752;52.612;13.630;2023-11-19T18:56:45;10.30;;;3.80;;
13366;SDS011;6752;52.612;13.630;2023-11-19T19:01:48;12.83;;;4.33;;
13366;SDS011;6752;52.612;13.630;2023-11-19T19:06:50;10.63;;;4.10;;
13366;SDS011;6752;52.612;13.630;2023-11-19T19:11:52;9.30;;;4.07;;
13366;SDS011;6752;52.612;13.630;2023-11-19T19:16:55;12.43;;;4.10;;
13366;SDS011;6752;52.612;13.630;2023-11-19T19:21:57;10.73;;;4.30;;
13366;SDS011;6752;52.612;13.630;2023-11-19T19:26:59;10.90;;;4.37;;
13366;SDS011;6752;52.612;13.630;2023-11-19T19:32:02;9.97;;;4.23;;
13366;SDS011;6752;52.612;13.630;2023-11-19T19:37:04;11.13;;;5.10;;
13366;SDS011;6752;52.612;13.630;2023-11-19T19:42:06;10.27;;;5.13;;
13366;SDS011;6752;52.612;13.630;2023-11-19T19:47:09;13.65;;;5.97;;
13366;SDS011;6752;52.612;13.630;2023-11-19T19:52:11;9.47;;;4.20;;
13366;SDS011;6752;52.612;13.630;2023-11-19T19:57:14;12.83;;;6.10;;
13366;SDS011;6752;52.612;13.630;2023-11-19T20:02:16;16.23;;;6.93;;
13366;SDS011;6752;52.612;13.630;2023-11-19T20:07:18;13.73;;;5.47;;
13366;SDS011;6752;52.612;13.630;2023-11-19T20:12:21;14.23;;;6.00;;
13366;SDS011;6752;52.612;13.630;2023-11-19T20:17:23;14.87;;;5.37;;
13366;SDS011;6752;52.612;13.630;2023-11-19T20:22:25;14.43;;;5.13;;
13366;SDS011;6752;52.612;13.630;2023-11-19T20:27:28;15.67;;;5.33;;
13366;SDS011;6752;52.612;13.630;2023-11-19T20:32:30;18.67;;;5.40;;
13366;SDS011;6752;52.612;13.630;2023-11-19T20:37:32;15.97;;;5.20;;
13366;SDS011;6752;52.612;13.630;2023-11-19T20:42:35;15.77;;;5.10;;
13366;SDS011;6752;52.612;13.630;2023-11-19T20:47:40;14.57;;;5.37;;
13366;SDS011;6752;52.612;13.630;2023-11-19T20:52:42;11.30;;;5.37;;
13366;SDS011;6752;52.612;13.630;2023-11-19T20:57:45;14.37;;;5.57;;
13366;SDS011;6752;52.612;13.630;2023-11-19T21:02:47;15.07;;;4.83;;
13366;SDS011;6752;52.612;13.630;2023-11-19T21:07:50;13.03;;;5.27;;
13366;SDS011;6752;52.612;13.630;2023-11-19T21:12:52;11.00;;;4.97;;
13366;SDS011;6752;52.612;13.630;2023-11-19T21:17:54;11.37;;;5.73;;
13366;SDS011;6752;52.612;13.630;2023-11-19T21:22:57;12.27;;;5.40;;
13366;SDS011;6752;52.612;13.630;2023-11-19T21:27:59;11.63;;;4.97;;
13366;SDS011;6752;52.612;13.630;2023-11-19T21:33:01;14.13;;;4.77;;
13366;SDS011;6752;52.612;13.630;2023-11-19T21:38:04;13.83;;;4.90;;
13366;SDS011;6752;52.612;13.630;2023-11-19T21:43:06;13.17;;;4.73;;
13366;SDS011;6752;52.612;13.630;2023-11-19T21:48:08;13.03;;;4.97;;
13366;SDS011;6752;52.612;13.630;2023-11-19T21:53:11;15.57;;;5.17;;
13366;SDS011;6752;52.612;13.630;2023-11-19T21:58:13;13.53;;;5.20;;
13366;SDS011;6752;52.612;13.630;2023-11-19T22:03:16;12.07;;;5.13;;
13366;SDS011;6752;52.612;13.630;2023-11-19T22:08:18;13.43;;;5.43;;
13366;SDS011;6752;52.612;13.630;2023-11-19T22:13:20;11.73;;;5.07;;
13366;SDS011;6752;52.612;13.630;2023-11-19T22:18:23;10.50;;;4.10;;
13366;SDS011;6752;52.612;13.630;2023-11-19T22:23:25;14.83;;;4.80;;
13366;SDS011;6752;52.612;13.630;2023-11-19T22:28:28;9.70;;;4.30;;
13366;SDS011;6752;52.612;13.630;2023-11-19T22:33:30;14.53;;;4.90;;
13366;SDS011;6752;52.612;13.630;2023-11-19T22:38:32;9.40;;;4.63;;
13366;SDS011;6752;52.612;13.630;2023-11-19T22:43:34;12.20;;;4.50;;
13366;SDS011;6752;52.612;13.630;2023-11-19T22:48:37;14.30;;;4.90;;
13366;SDS011;6752;52.612;13.630;2023-11-19T22:53:39;15.73;;;5.07;;
13366;SDS011;6752;52.612;13.630;2023-11-19T22:58:42;12.27;;;4.43;;
13366;SDS011;6752;52.612;13.630;2023-11-19T23:03:44;10.52;;;4.80;;
13366;SDS011;6752;52.612;13.630;2023-11-19T23:08:46;10.40;;;4.80;;
13366;SDS011;6752;52.612;13.630;2023-11-19T23:13:49;9.50;;;4.30;;
13366;SDS011;6752;52.612;13.630;2023-11-19T23:18:51;11.00;;;4.53;;
13366;SDS011;6752;52.612;13.630;2023-11-19T23:23:53;10.97;;;4.70;;
13366;SDS011;6752;52.612;13.630;2023-11-19T23:28:56;14.07;;;5.90;;
13366;SDS011;6752;52.612;13.630;2023-11-19T23:33:58;13.13;;;4.83;;
13366;SDS011;6752;52.612;13.630;2023-11-19T23:39:00;14.80;;;5.50;;
13366;SDS011;6752;52.612;13.630;2023-11-19T23:44:03;10.67;;;4.57;;
13366;SDS011;6752;52.612;13.630;2023-11-19T23:49:05;12.57;;;4.60;;
13366;SDS011;6752;52.612;13.630;2023-11-19T23:54:07;13.20;;;5.23;;
13366;SDS011;6752;52.612;13.630;2023-11-19T23:59:10;10.83;;;5.10;;
